Aérodrome :
LOGIN :

S'inscrire | Disclaimer

   EN    FR    IT 

 










Légende :    VFR   VFR Marginal   IFR   IFR Intensif   IFR Très Intensif
Visi : 
Plafond : 
>= 8 km
>= 3000ft
5 à 8 km
1000 à 3000 ft
1500m à 5 km
500 à 1000 ft
800 à 1500m
200 à 500 ft
< 800m
< 200 ft
Symboles :   Orages  Brouillard  Fortes neiges  Fortes précipitations  Vent > 20 kt
SIGMETs :   Divers  Orages  Givrage  Turbulence  Onde Orograph.  Cendres Volcan.






- Altitude de l'aérodrome : 101 ft
- Code IATA : HAD


ESMT - Halmstad

DERNIER METAR :
  • 232020Z 28019KT 9999 OVC019 05/02 Q0998

METARs EXPIRÉS :
  • 231950Z 28018KT 9999 OVC020 05/02 Q0997
  • 231920Z 29016KT 9999 OVC025 05/02 Q0997
  • 231850Z 28016KT 9999 BKN026 OVC034 05/02 Q0997
  • 231820Z 28017KT 9999 FEW024 SCT059 05/01 Q0996
  • 231750Z 27013KT 9999 FEW035 SCT068 05/01 Q0996

TAF TAF ESMT
Valide du 23 à 18h jusqu'au 23 à 22h UTC


231720Z 2318/2322 26012KT 9999 BKN020
TEMPO 2318/2322 27015G25KT SCT020CB



MET'MAP, la Météo Aéronautique d'un coup d'oeil ! - Copyright ORBIFLY Décembre 2007 - Disclaimer

ORBIFLY MET'MAP TEAM :

Programmation & Développement : Alexandra Zaïnal
Sur une idée originale de : Baudouin d'Aumeries
Assistance à la programmation : Marc-Olivier Méhu
Soutien technique & logistique : Manuel Goepfert

Contact : metmap@orbifly.com




SOURCES & CREDITS :

   NOAA